Yuan Shun Hai — 3FZO2 — position and weather

sailwx.info

Track history (hours):
 
Tides and Currents Weather Stations Pressure Air Temp Water Temp Dewpoint Dewpoint Depression Visibility Wind Speed Wind Dir Waves Ship Positions

Yuan Shun Hai

Last reported at 2018-Jun-09 02:12 UTC. Time now 2018-Jun-23 06:15 UTC.
Position N 01°21' E 103°17'.
Warning: this ship's position is 14 days out of date.

Length 190 m; draft 11.3 m.

Type: Cargo ship. MMSI: 353863000.

Date/timePositionNaut miles runAvg speedWind from/ knotsBaromVisibWave heightAir tempDewpointWater temp
2018-Jun-09 02:12N 01°21' E 103°17'313.6
2018-Jun-09 02:00N 01°19' E 103°19'612.4
2018-Jun-09 01:30N 01°15' E 103°24'612.5
2018-Jun-09 01:00N 01°13' E 103°30'613.0
2018-Jun-09 00:30N 01°12' E 103°36'611.2
2018-Jun-09 00:00N 01°10' E 103°41'510.8
2018-Jun-08 23:30N 01°10' E 103°47'611.1
2018-Jun-08 23:00N 01°12' E 103°52'611.8
2018-Jun-08 22:31N 01°15' E 103°57'3 6.7
2018-Jun-08 22:00N 01°17' E 103°59'0 0.9
2018-Jun-08 21:30N 01°17' E 103°60'0 0.0
2018-Jun-08 19:55N 01°17' E 103°60'0 0.0
2018-Jun-08 19:21N 01°17' E 103°60'0 0.0
2018-Jun-08 19:00N 01°17' E 103°60'0 0.0
2018-Jun-08 18:28N 01°17' E 103°60'0 0.1
2018-Jun-08 17:37N 01°17' E 103°60'0 0.0
2018-Jun-08 17:28N 01°17' E 103°60'0 0.1
2018-Jun-08 16:34N 01°17' E 103°60'0 0.0
2018-Jun-08 16:30N 01°17' E 103°60'0 0.0
2018-Jun-08 15:57N 01°17' E 103°60'0 0.1
2018-Jun-08 15:25N 01°17' E 103°60'0 0.0
2018-Jun-08 14:55N 01°17' E 103°60'0 0.1
2018-Jun-08 14:22N 01°17' E 103°60'0 0.2
2018-Jun-08 14:00N 01°17' E 103°60'0 0.1
2018-Jun-08 13:22N 01°17' E 103°60'0 0.1
2018-Jun-08 12:52N 01°17' E 103°60'0 0.0
2018-Jun-08 12:30N 01°17' E 103°60'0 0.0
2018-Jun-08 12:00N 01°17' E 103°60'0 0.1
2018-Jun-08 11:30N 01°17' E 103°60'0 0.0
2018-Jun-08 10:55N 01°17' E 103°60'0 0.0
2018-Jun-08 10:22N 01°17' E 103°60'0 0.0
2018-Jun-08 09:58N 01°17' E 103°60'0 0.0
2018-Jun-08 09:28N 01°17' E 103°60'0 0.0
2018-Jun-08 08:34N 01°17' E 103°60'0 0.0
2018-Jun-08 08:19N 01°17' E 103°60'0 0.0
2018-Jun-08 07:51N 01°17' E 103°60'0 0.0
2018-Jun-08 06:13N 01°17' E 103°60'0 0.0
2018-Jun-08 05:55N 01°17' E 103°60'0 0.0
2018-Jun-08 05:25N 01°17' E 103°60'0 0.1
2018-Jun-08 04:59N 01°17' E 103°60'1 2.2
2018-Jun-08 04:30N 01°17' E 104°01'2 3.4
2018-Jun-08 04:00N 01°16' E 103°59'1 2.9
2018-Jun-08 03:30N 01°16' E 104°01'3 6.1
2018-Jun-08 03:00N 01°16' E 104°04'3 5.8
2018-Jun-08 02:30N 01°17' E 104°07'4 7.3
2018-Jun-08 02:00N 01°17' E 104°10'5 8.6
2018-Jun-08 01:28N 01°18' E 104°15'4 8.3
2018-Jun-08 00:59N 01°19' E 104°19'5 8.3
2018-Jun-08 00:26N 01°22' E 104°22'4 8.9
2018-Jun-07 23:57N 01°24' E 104°26'8 9.2
2018-Jun-07 23:05N 01°29' E 104°32'2 9.5
2018-Jun-07 22:56N 01°30' E 104°33'5 7.9
2018-Jun-07 22:17N 01°34' E 104°37'411.8
2018-Jun-07 21:57N 01°37' E 104°39'3312.5
2018-Jun-07 19:20N 02°05' E 104°55'612.4
2018-Jun-07 18:51N 02°11' E 104°58'  
Track history (hours):
 
Tides and Currents Weather Stations Pressure Air Temp Water Temp Dewpoint Dewpoint Depression Visibility Wind Speed Wind Dir Waves Ship Positions

Yuan Shun Hai

Last reported at 2018-Jun-09 02:12 UTC. Time now 2018-Jun-23 06:15 UTC.
Position N 01°21' E 103°17'.
Warning: this ship's position is 14 days out of date.

Length 190 m; draft 11.3 m.

Type: Cargo ship. MMSI: 353863000.

Date/timePositionNaut miles runAvg speedWind from/ knotsBaromVisibWave heightAir tempDewpointWater temp
2018-Jun-09 02:12N 01°21' E 103°17'313.6
2018-Jun-09 02:00N 01°19' E 103°19'612.4
2018-Jun-09 01:30N 01°15' E 103°24'612.5
2018-Jun-09 01:00N 01°13' E 103°30'613.0
2018-Jun-09 00:30N 01°12' E 103°36'611.2
2018-Jun-09 00:00N 01°10' E 103°41'510.8
2018-Jun-08 23:30N 01°10' E 103°47'611.1
2018-Jun-08 23:00N 01°12' E 103°52'611.8
2018-Jun-08 22:31N 01°15' E 103°57'3 6.7
2018-Jun-08 22:00N 01°17' E 103°59'0 0.9
2018-Jun-08 21:30N 01°17' E 103°60'0 0.0
2018-Jun-08 19:55N 01°17' E 103°60'0 0.0
2018-Jun-08 19:21N 01°17' E 103°60'0 0.0
2018-Jun-08 19:00N 01°17' E 103°60'0 0.0
2018-Jun-08 18:28N 01°17' E 103°60'0 0.1
2018-Jun-08 17:37N 01°17' E 103°60'0 0.0
2018-Jun-08 17:28N 01°17' E 103°60'0 0.1
2018-Jun-08 16:34N 01°17' E 103°60'0 0.0
2018-Jun-08 16:30N 01°17' E 103°60'0 0.0
2018-Jun-08 15:57N 01°17' E 103°60'0 0.1
2018-Jun-08 15:25N 01°17' E 103°60'0 0.0
2018-Jun-08 14:55N 01°17' E 103°60'0 0.1
2018-Jun-08 14:22N 01°17' E 103°60'0 0.2
2018-Jun-08 14:00N 01°17' E 103°60'0 0.1
2018-Jun-08 13:22N 01°17' E 103°60'0 0.1
2018-Jun-08 12:52N 01°17' E 103°60'0 0.0
2018-Jun-08 12:30N 01°17' E 103°60'0 0.0
2018-Jun-08 12:00N 01°17' E 103°60'0 0.1
2018-Jun-08 11:30N 01°17' E 103°60'0 0.0
2018-Jun-08 10:55N 01°17' E 103°60'0 0.0
2018-Jun-08 10:22N 01°17' E 103°60'0 0.0
2018-Jun-08 09:58N 01°17' E 103°60'0 0.0
2018-Jun-08 09:28N 01°17' E 103°60'0 0.0
2018-Jun-08 08:34N 01°17' E 103°60'0 0.0
2018-Jun-08 08:19N 01°17' E 103°60'0 0.0
2018-Jun-08 07:51N 01°17' E 103°60'0 0.0
2018-Jun-08 06:13N 01°17' E 103°60'0 0.0
2018-Jun-08 05:55N 01°17' E 103°60'0 0.0
2018-Jun-08 05:25N 01°17' E 103°60'0 0.1
2018-Jun-08 04:59N 01°17' E 103°60'1 2.2
2018-Jun-08 04:30N 01°17' E 104°01'2 3.4
2018-Jun-08 04:00N 01°16' E 103°59'1 2.9
2018-Jun-08 03:30N 01°16' E 104°01'3 6.1
2018-Jun-08 03:00N 01°16' E 104°04'3 5.8
2018-Jun-08 02:30N 01°17' E 104°07'4 7.3
2018-Jun-08 02:00N 01°17' E 104°10'5 8.6
2018-Jun-08 01:28N 01°18' E 104°15'4 8.3
2018-Jun-08 00:59N 01°19' E 104°19'5 8.3
2018-Jun-08 00:26N 01°22' E 104°22'4 8.9
2018-Jun-07 23:57N 01°24' E 104°26'8 9.2
2018-Jun-07 23:05N 01°29' E 104°32'2 9.5
2018-Jun-07 22:56N 01°30' E 104°33'5 7.9
2018-Jun-07 22:17N 01°34' E 104°37'411.8
2018-Jun-07 21:57N 01°37' E 104°39'3312.5
2018-Jun-07 19:20N 02°05' E 104°55'612.4
2018-Jun-07 18:51N 02°11' E 104°58'  

Dump ship's entire track history